sensor_id;sensor_type;location;lat;lon;timestamp;temperature;humidity
14099;DHT22;7126;48.458;7.930;2024-03-23T00:53:26;13.50;99.90
14099;DHT22;7126;48.458;7.930;2024-03-23T00:55:52;13.50;99.90
14099;DHT22;7126;48.458;7.930;2024-03-23T00:58:17;13.50;99.90
14099;DHT22;7126;48.458;7.930;2024-03-23T01:00:43;13.60;99.90
14099;DHT22;7126;48.458;7.930;2024-03-23T01:03:08;13.50;99.90
14099;DHT22;7126;48.458;7.930;2024-03-23T01:05:34;13.50;99.90
14099;DHT22;7126;48.458;7.930;2024-03-23T01:07:59;13.50;99.90
14099;DHT22;7126;48.458;7.930;2024-03-23T01:10:25;13.40;99.90
14099;DHT22;7126;48.458;7.930;2024-03-23T01:12:50;13.40;99.90
14099;DHT22;7126;48.458;7.930;2024-03-23T01:15:16;13.40;99.90
14099;DHT22;7126;48.458;7.930;2024-03-23T01:17:41;13.40;99.90
14099;DHT22;7126;48.458;7.930;2024-03-23T01:20:07;13.40;99.90
14099;DHT22;7126;48.458;7.930;2024-03-23T01:22:33;13.30;99.90
14099;DHT22;7126;48.458;7.930;2024-03-23T01:24:58;13.30;99.90
14099;DHT22;7126;48.458;7.930;2024-03-23T01:27:24;13.20;99.90
14099;DHT22;7126;48.458;7.930;2024-03-23T01:29:49;13.20;99.90
14099;DHT22;7126;48.458;7.930;2024-03-23T01:32:16;13.20;99.90
14099;DHT22;7126;48.458;7.930;2024-03-23T01:34:41;13.20;99.90
14099;DHT22;7126;48.458;7.930;2024-03-23T01:37:07;13.10;99.90
14099;DHT22;7126;48.458;7.930;2024-03-23T01:39:32;13.00;99.90
14099;DHT22;7126;48.458;7.930;2024-03-23T01:41:58;13.00;99.90
14099;DHT22;7126;48.458;7.930;2024-03-23T01:44:23;12.90;99.90
14099;DHT22;7126;48.458;7.930;2024-03-23T01:46:49;12.90;99.90
14099;DHT22;7126;48.458;7.930;2024-03-23T01:49:14;12.80;99.90
14099;DHT22;7126;48.458;7.930;2024-03-23T01:51:41;12.80;99.90
14099;DHT22;7126;48.458;7.930;2024-03-23T01:54:08;12.90;99.90
14099;DHT22;7126;48.458;7.930;2024-03-23T01:56:34;13.10;99.90
14099;DHT22;7126;48.458;7.930;2024-03-23T01:59:01;13.20;99.90
14099;DHT22;7126;48.458;7.930;2024-03-23T02:01:27;13.30;99.90
14099;DHT22;7126;48.458;7.930;2024-03-23T02:03:52;13.30;99.90
14099;DHT22;7126;48.458;7.930;2024-03-23T02:06:17;13.40;99.90
14099;DHT22;7126;48.458;7.930;2024-03-23T02:08:44;13.40;99.90
14099;DHT22;7126;48.458;7.930;2024-03-23T02:11:09;13.40;99.90
14099;DHT22;7126;48.458;7.930;2024-03-23T02:13:35;13.40;99.90
14099;DHT22;7126;48.458;7.930;2024-03-23T02:16:01;13.30;99.90
14099;DHT22;7126;48.458;7.930;2024-03-23T02:18:26;13.20;99.90
14099;DHT22;7126;48.458;7.930;2024-03-23T02:20:52;13.20;99.90
14099;DHT22;7126;48.458;7.930;2024-03-23T02:23:17;13.10;99.90
14099;DHT22;7126;48.458;7.930;2024-03-23T02:25:43;13.00;99.90
14099;DHT22;7126;48.458;7.930;2024-03-23T02:28:09;12.90;99.90
14099;DHT22;7126;48.458;7.930;2024-03-23T02:30:34;12.90;99.90
14099;DHT22;7126;48.458;7.930;2024-03-23T02:33:00;12.90;99.90
14099;DHT22;7126;48.458;7.930;2024-03-23T02:35:26;12.90;99.90
14099;DHT22;7126;48.458;7.930;2024-03-23T02:37:51;12.80;99.90
14099;DHT22;7126;48.458;7.930;2024-03-23T02:40:20;12.80;99.90
14099;DHT22;7126;48.458;7.930;2024-03-23T02:42:45;12.80;99.90
14099;DHT22;7126;48.458;7.930;2024-03-23T02:45:11;12.70;99.90
14099;DHT22;7126;48.458;7.930;2024-03-23T02:47:37;12.70;99.90
14099;DHT22;7126;48.458;7.930;2024-03-23T02:50:03;12.60;99.90
14099;DHT22;7126;48.458;7.930;2024-03-23T02:52:29;12.60;99.90
14099;DHT22;7126;48.458;7.930;2024-03-23T02:54:55;12.60;99.90
14099;DHT22;7126;48.458;7.930;2024-03-23T02:57:20;12.50;99.90
14099;DHT22;7126;48.458;7.930;2024-03-23T02:59:46;12.40;99.90
14099;DHT22;7126;48.458;7.930;2024-03-23T03:02:13;12.40;99.90
14099;DHT22;7126;48.458;7.930;2024-03-23T03:04:39;12.40;99.90
14099;DHT22;7126;48.458;7.930;2024-03-23T03:07:04;12.40;99.90
14099;DHT22;7126;48.458;7.930;2024-03-23T03:09:30;12.50;99.90
14099;DHT22;7126;48.458;7.930;2024-03-23T03:11:55;12.50;99.90
14099;DHT22;7126;48.458;7.930;2024-03-23T03:14:21;12.60;99.90
14099;DHT22;7126;48.458;7.930;2024-03-23T03:16:47;12.60;99.90
14099;DHT22;7126;48.458;7.930;2024-03-23T03:19:12;12.70;99.90
14099;DHT22;7126;48.458;7.930;2024-03-23T03:21:38;12.80;99.90
14099;DHT22;7126;48.458;7.930;2024-03-23T03:24:06;12.90;99.90
14099;DHT22;7126;48.458;7.930;2024-03-23T03:26:31;13.00;99.90
14099;DHT22;7126;48.458;7.930;2024-03-23T03:28:57;13.10;99.90
14099;DHT22;7126;48.458;7.930;2024-03-23T03:31:23;13.10;99.90
14099;DHT22;7126;48.458;7.930;2024-03-23T03:33:49;13.20;99.90
14099;DHT22;7126;48.458;7.930;2024-03-23T03:36:15;13.30;99.90
14099;DHT22;7126;48.458;7.930;2024-03-23T03:38:41;13.30;99.90
14099;DHT22;7126;48.458;7.930;2024-03-23T03:41:06;13.30;99.90
14099;DHT22;7126;48.458;7.930;2024-03-23T03:43:32;13.40;99.90
14099;DHT22;7126;48.458;7.930;2024-03-23T03:45:59;13.40;99.90
14099;DHT22;7126;48.458;7.930;2024-03-23T03:48:24;13.40;99.90
14099;DHT22;7126;48.458;7.930;2024-03-23T03:50:50;13.50;99.90
14099;DHT22;7126;48.458;7.930;2024-03-23T03:53:16;13.40;99.90
14099;DHT22;7126;48.458;7.930;2024-03-23T03:55:41;13.40;99.90
14099;DHT22;7126;48.458;7.930;2024-03-23T03:58:07;13.40;99.90
14099;DHT22;7126;48.458;7.930;2024-03-23T04:00:33;13.30;99.90
14099;DHT22;7126;48.458;7.930;2024-03-23T04:02:58;13.20;99.90
14099;DHT22;7126;48.458;7.930;2024-03-23T04:05:24;13.20;99.90
14099;DHT22;7126;48.458;7.930;2024-03-23T04:07:49;13.20;99.90
14099;DHT22;7126;48.458;7.930;2024-03-23T04:10:15;13.10;99.90
14099;DHT22;7126;48.458;7.930;2024-03-23T04:12:43;13.10;99.90
14099;DHT22;7126;48.458;7.930;2024-03-23T04:15:10;13.00;99.90
14099;DHT22;7126;48.458;7.930;2024-03-23T04:17:35;12.90;99.90
14099;DHT22;7126;48.458;7.930;2024-03-23T04:20:01;12.90;99.90
14099;DHT22;7126;48.458;7.930;2024-03-23T04:22:28;12.90;99.90
14099;DHT22;7126;48.458;7.930;2024-03-23T04:24:54;12.90;99.90
14099;DHT22;7126;48.458;7.930;2024-03-23T04:27:20;12.90;99.90
14099;DHT22;7126;48.458;7.930;2024-03-23T04:29:52;12.90;99.90
14099;DHT22;7126;48.458;7.930;2024-03-23T04:32:20;12.90;99.90
14099;DHT22;7126;48.458;7.930;2024-03-23T04:34:46;12.90;99.90
14099;DHT22;7126;48.458;7.930;2024-03-23T04:37:12;12.90;99.90
14099;DHT22;7126;48.458;7.930;2024-03-23T04:39:37;12.90;99.90
14099;DHT22;7126;48.458;7.930;2024-03-23T04:42:04;12.90;99.90
14099;DHT22;7126;48.458;7.930;2024-03-23T04:44:29;12.80;99.90
14099;DHT22;7126;48.458;7.930;2024-03-23T04:46:56;12.80;99.90
14099;DHT22;7126;48.458;7.930;2024-03-23T04:49:22;12.80;99.90
14099;DHT22;7126;48.458;7.930;2024-03-23T04:51:47;12.80;99.90
14099;DHT22;7126;48.458;7.930;2024-03-23T04:54:13;12.70;99.90
14099;DHT22;7126;48.458;7.930;2024-03-23T04:56:38;12.70;99.90
14099;DHT22;7126;48.458;7.930;2024-03-23T04:59:04;12.70;99.90
14099;DHT22;7126;48.458;7.930;2024-03-23T05:01:33;12.70;99.90
14099;DHT22;7126;48.458;7.930;2024-03-23T05:03:59;12.70;99.90
14099;DHT22;7126;48.458;7.930;2024-03-23T05:06:25;12.60;99.90
14099;DHT22;7126;48.458;7.930;2024-03-23T05:08:51;12.60;99.90
14099;DHT22;7126;48.458;7.930;2024-03-23T05:11:17;12.50;99.90
14099;DHT22;7126;48.458;7.930;2024-03-23T05:13:43;12.60;99.90
14099;DHT22;7126;48.458;7.930;2024-03-23T05:16:08;12.50;99.90
14099;DHT22;7126;48.458;7.930;2024-03-23T05:18:34;12.50;99.90
14099;DHT22;7126;48.458;7.930;2024-03-23T05:21:00;12.50;99.90
14099;DHT22;7126;48.458;7.930;2024-03-23T05:23:26;12.50;99.90
14099;DHT22;7126;48.458;7.930;2024-03-23T05:25:53;12.40;99.90
14099;DHT22;7126;48.458;7.930;2024-03-23T05:28:18;12.50;99.90
14099;DHT22;7126;48.458;7.930;2024-03-23T05:30:49;12.50;99.90
14099;DHT22;7126;48.458;7.930;2024-03-23T05:33:15;12.40;99.90
14099;DHT22;7126;48.458;7.930;2024-03-23T05:35:40;12.40;99.90
14099;DHT22;7126;48.458;7.930;2024-03-23T05:38:06;12.30;99.90
14099;DHT22;7126;48.458;7.930;2024-03-23T05:40:31;12.20;99.90
14099;DHT22;7126;48.458;7.930;2024-03-23T05:42:57;12.10;99.90
14099;DHT22;7126;48.458;7.930;2024-03-23T05:45:23;12.10;99.90
14099;DHT22;7126;48.458;7.930;2024-03-23T05:47:48;12.00;99.90
14099;DHT22;7126;48.458;7.930;2024-03-23T05:50:14;12.00;99.90
14099;DHT22;7126;48.458;7.930;2024-03-23T05:52:40;11.90;99.90
14099;DHT22;7126;48.458;7.930;2024-03-23T05:55:06;11.90;99.90
14099;DHT22;7126;48.458;7.930;2024-03-23T05:57:32;11.80;99.90
14099;DHT22;7126;48.458;7.930;2024-03-23T05:59:57;11.70;99.90
14099;DHT22;7126;48.458;7.930;2024-03-23T06:02:24;11.60;99.90
14099;DHT22;7126;48.458;7.930;2024-03-23T06:04:49;11.50;99.90
14099;DHT22;7126;48.458;7.930;2024-03-23T06:07:15;11.50;99.90
14099;DHT22;7126;48.458;7.930;2024-03-23T06:09:41;11.50;99.90
14099;DHT22;7126;48.458;7.930;2024-03-23T06:12:07;11.50;99.90
14099;DHT22;7126;48.458;7.930;2024-03-23T06:14:32;11.40;99.90
14099;DHT22;7126;48.458;7.930;2024-03-23T06:16:58;11.40;99.90
14099;DHT22;7126;48.458;7.930;2024-03-23T06:19:25;11.40;99.90
14099;DHT22;7126;48.458;7.930;2024-03-23T06:21:53;11.40;99.90
14099;DHT22;7126;48.458;7.930;2024-03-23T06:24:18;11.40;99.90
14099;DHT22;7126;48.458;7.930;2024-03-23T06:26:44;11.40;99.90
14099;DHT22;7126;48.458;7.930;2024-03-23T06:29:09;11.30;99.90
14099;DHT22;7126;48.458;7.930;2024-03-23T06:31:35;11.30;99.90
14099;DHT22;7126;48.458;7.930;2024-03-23T06:34:00;11.40;99.90
14099;DHT22;7126;48.458;7.930;2024-03-23T06:36:27;11.30;99.90
14099;DHT22;7126;48.458;7.930;2024-03-23T06:38:52;11.20;99.90
14099;DHT22;7126;48.458;7.930;2024-03-23T06:41:19;11.20;99.90
14099;DHT22;7126;48.458;7.930;2024-03-23T06:43:44;11.20;99.90
14099;DHT22;7126;48.458;7.930;2024-03-23T06:46:10;11.20;99.90
14099;DHT22;7126;48.458;7.930;2024-03-23T06:48:35;11.20;99.90
14099;DHT22;7126;48.458;7.930;2024-03-23T06:51:00;11.20;99.90
14099;DHT22;7126;48.458;7.930;2024-03-23T06:53:26;11.20;99.90
14099;DHT22;7126;48.458;7.930;2024-03-23T06:55:53;11.20;99.90
14099;DHT22;7126;48.458;7.930;2024-03-23T06:58:23;11.20;99.90
14099;DHT22;7126;48.458;7.930;2024-03-23T07:00:48;11.10;99.90
14099;DHT22;7126;48.458;7.930;2024-03-23T07:03:15;11.10;99.90
14099;DHT22;7126;48.458;7.930;2024-03-23T07:05:40;11.00;99.90
14099;DHT22;7126;48.458;7.930;2024-03-23T07:08:07;11.00;99.90
14099;DHT22;7126;48.458;7.930;2024-03-23T07:10:32;10.90;99.90
14099;DHT22;7126;48.458;7.930;2024-03-23T07:12:58;11.00;99.90
14099;DHT22;7126;48.458;7.930;2024-03-23T07:15:24;11.00;99.90
14099;DHT22;7126;48.458;7.930;2024-03-23T07:17:49;11.00;99.90
14099;DHT22;7126;48.458;7.930;2024-03-23T07:20:15;11.00;99.90
14099;DHT22;7126;48.458;7.930;2024-03-23T07:22:41;11.00;99.90
14099;DHT22;7126;48.458;7.930;2024-03-23T07:25:06;11.00;99.90
14099;DHT22;7126;48.458;7.930;2024-03-23T07:27:32;11.00;99.90
14099;DHT22;7126;48.458;7.930;2024-03-23T07:29:59;11.00;99.90
14099;DHT22;7126;48.458;7.930;2024-03-23T07:32:26;11.00;99.90
14099;DHT22;7126;48.458;7.930;2024-03-23T07:34:52;11.00;99.90
14099;DHT22;7126;48.458;7.930;2024-03-23T07:37:17;11.00;99.90
14099;DHT22;7126;48.458;7.930;2024-03-23T07:39:43;11.10;99.90
14099;DHT22;7126;48.458;7.930;2024-03-23T07:42:08;11.00;99.90
14099;DHT22;7126;48.458;7.930;2024-03-23T07:44:34;11.00;99.90
14099;DHT22;7126;48.458;7.930;2024-03-23T07:47:03;11.10;99.90
14099;DHT22;7126;48.458;7.930;2024-03-23T07:49:29;11.10;99.90
14099;DHT22;7126;48.458;7.930;2024-03-23T07:51:55;11.10;99.90
14099;DHT22;7126;48.458;7.930;2024-03-23T07:54:20;11.10;99.90
14099;DHT22;7126;48.458;7.930;2024-03-23T07:56:46;11.10;99.90
14099;DHT22;7126;48.458;7.930;2024-03-23T07:59:11;11.20;99.90
14099;DHT22;7126;48.458;7.930;2024-03-23T08:01:37;11.30;99.90
14099;DHT22;7126;48.458;7.930;2024-03-23T08:04:02;11.30;99.90
14099;DHT22;7126;48.458;7.930;2024-03-23T08:06:28;11.40;99.90
14099;DHT22;7126;48.458;7.930;2024-03-23T08:08:57;11.60;99.90
14099;DHT22;7126;48.458;7.930;2024-03-23T08:11:27;11.60;99.90
14099;DHT22;7126;48.458;7.930;2024-03-23T08:13:53;11.50;99.90
14099;DHT22;7126;48.458;7.930;2024-03-23T08:16:18;11.40;99.90
14099;DHT22;7126;48.458;7.930;2024-03-23T08:18:44;11.30;99.90
14099;DHT22;7126;48.458;7.930;2024-03-23T08:21:10;11.20;99.90
14099;DHT22;7126;48.458;7.930;2024-03-23T08:23:36;11.30;99.90
14099;DHT22;7126;48.458;7.930;2024-03-23T08:26:04;11.30;99.90
14099;DHT22;7126;48.458;7.930;2024-03-23T08:28:30;11.40;99.90
14099;DHT22;7126;48.458;7.930;2024-03-23T08:30:56;11.40;99.90
14099;DHT22;7126;48.458;7.930;2024-03-23T08:33:22;11.40;99.90
14099;DHT22;7126;48.458;7.930;2024-03-23T08:36:00;11.40;99.90
14099;DHT22;7126;48.458;7.930;2024-03-23T08:38:27;11.50;99.90
14099;DHT22;7126;48.458;7.930;2024-03-23T08:41:02;11.60;99.90
14099;DHT22;7126;48.458;7.930;2024-03-23T08:43:32;11.70;99.90
14099;DHT22;7126;48.458;7.930;2024-03-23T08:46:05;11.70;99.90
14099;DHT22;7126;48.458;7.930;2024-03-23T08:48:35;11.70;99.90
14099;DHT22;7126;48.458;7.930;2024-03-23T08:51:01;11.60;99.90
14099;DHT22;7126;48.458;7.930;2024-03-23T08:53:28;11.50;99.90
14099;DHT22;7126;48.458;7.930;2024-03-23T08:55:55;11.50;99.90
14099;DHT22;7126;48.458;7.930;2024-03-23T08:58:21;11.40;99.90
14099;DHT22;7126;48.458;7.930;2024-03-23T09:00:46;11.40;99.90
14099;DHT22;7126;48.458;7.930;2024-03-23T09:03:12;11.50;99.90
14099;DHT22;7126;48.458;7.930;2024-03-23T09:05:41;11.40;99.90
14099;DHT22;7126;48.458;7.930;2024-03-23T09:08:06;11.50;99.90
14099;DHT22;7126;48.458;7.930;2024-03-23T09:10:34;11.60;99.90
14099;DHT22;7126;48.458;7.930;2024-03-23T09:13:00;11.60;99.90
14099;DHT22;7126;48.458;7.930;2024-03-23T09:15:25;11.80;99.90
14099;DHT22;7126;48.458;7.930;2024-03-23T09:17:51;11.90;99.90
14099;DHT22;7126;48.458;7.930;2024-03-23T09:20:16;12.00;99.90
14099;DHT22;7126;48.458;7.930;2024-03-23T09:22:42;12.10;99.90
14099;DHT22;7126;48.458;7.930;2024-03-23T09:25:08;12.20;99.90
14099;DHT22;7126;48.458;7.930;2024-03-23T09:27:33;12.20;99.90
14099;DHT22;7126;48.458;7.930;2024-03-23T09:29:59;12.30;99.90
14099;DHT22;7126;48.458;7.930;2024-03-23T09:32:24;12.40;99.90
14099;DHT22;7126;48.458;7.930;2024-03-23T09:34:49;12.30;99.90
14099;DHT22;7126;48.458;7.930;2024-03-23T09:37:15;12.10;99.90
14099;DHT22;7126;48.458;7.930;2024-03-23T09:39:40;12.00;99.90
14099;DHT22;7126;48.458;7.930;2024-03-23T09:42:07;12.00;99.90
14099;DHT22;7126;48.458;7.930;2024-03-23T09:44:32;12.20;99.90
14099;DHT22;7126;48.458;7.930;2024-03-23T09:46:58;12.50;99.90
14099;DHT22;7126;48.458;7.930;2024-03-23T09:49:24;12.70;99.90
14099;DHT22;7126;48.458;7.930;2024-03-23T09:51:50;12.80;99.90
14099;DHT22;7126;48.458;7.930;2024-03-23T09:54:16;12.80;99.90
14099;DHT22;7126;48.458;7.930;2024-03-23T09:56:42;12.60;99.90
14099;DHT22;7126;48.458;7.930;2024-03-23T09:59:07;12.50;99.90
14099;DHT22;7126;48.458;7.930;2024-03-23T10:01:33;12.40;99.90
14099;DHT22;7126;48.458;7.930;2024-03-23T10:03:59;12.20;99.90
14099;DHT22;7126;48.458;7.930;2024-03-23T10:06:24;12.00;99.90
14099;DHT22;7126;48.458;7.930;2024-03-23T10:08:51;11.80;99.90
14099;DHT22;7126;48.458;7.930;2024-03-23T10:11:17;11.70;99.90
14099;DHT22;7126;48.458;7.930;2024-03-23T10:13:43;11.60;99.90
14099;DHT22;7126;48.458;7.930;2024-03-23T10:16:09;11.50;99.90
14099;DHT22;7126;48.458;7.930;2024-03-23T10:18:39;11.40;99.90
14099;DHT22;7126;48.458;7.930;2024-03-23T10:23:30;11.20;99.90
14099;DHT22;7126;48.458;7.930;2024-03-23T10:26:21;10.90;99.90
14099;DHT22;7126;48.458;7.930;2024-03-23T10:29:00;10.50;99.90
14099;DHT22;7126;48.458;7.930;2024-03-23T10:31:34;9.80;99.90
14099;DHT22;7126;48.458;7.930;2024-03-23T10:34:03;8.90;99.90
14099;DHT22;7126;48.458;7.930;2024-03-23T10:36:29;8.60;99.90
14099;DHT22;7126;48.458;7.930;2024-03-23T10:38:56;8.70;99.90
14099;DHT22;7126;48.458;7.930;2024-03-23T10:41:26;8.80;99.90
14099;DHT22;7126;48.458;7.930;2024-03-23T10:43:52;8.80;99.90
14099;DHT22;7126;48.458;7.930;2024-03-23T10:46:18;8.90;99.90
14099;DHT22;7126;48.458;7.930;2024-03-23T10:48:44;9.10;99.90
14099;DHT22;7126;48.458;7.930;2024-03-23T10:51:10;9.00;99.90
14099;DHT22;7126;48.458;7.930;2024-03-23T10:53:36;9.10;99.90
14099;DHT22;7126;48.458;7.930;2024-03-23T10:56:05;9.30;99.90
14099;DHT22;7126;48.458;7.930;2024-03-23T10:58:47;9.40;99.90
14099;DHT22;7126;48.458;7.930;2024-03-23T11:01:13;9.50;99.90
14099;DHT22;7126;48.458;7.930;2024-03-23T11:03:44;9.70;99.90
14099;DHT22;7126;48.458;7.930;2024-03-23T11:06:10;9.80;99.90
14099;DHT22;7126;48.458;7.930;2024-03-23T11:08:37;10.00;99.90
14099;DHT22;7126;48.458;7.930;2024-03-23T11:11:19;10.00;99.90
14099;DHT22;7126;48.458;7.930;2024-03-23T11:13:48;10.00;99.90
14099;DHT22;7126;48.458;7.930;2024-03-23T11:18:46;9.90;99.90
14099;DHT22;7126;48.458;7.930;2024-03-23T11:24:16;10.20;99.90
14099;DHT22;7126;48.458;7.930;2024-03-23T11:26:42;10.20;99.90
14099;DHT22;7126;48.458;7.930;2024-03-23T11:29:11;10.20;99.90
14099;DHT22;7126;48.458;7.930;2024-03-23T11:31:38;10.20;99.90
14099;DHT22;7126;48.458;7.930;2024-03-23T11:34:05;10.30;99.90
14099;DHT22;7126;48.458;7.930;2024-03-23T11:36:30;10.20;99.90
14099;DHT22;7126;48.458;7.930;2024-03-23T11:38:56;10.20;99.90
14099;DHT22;7126;48.458;7.930;2024-03-23T11:41:21;10.20;99.90
14099;DHT22;7126;48.458;7.930;2024-03-23T11:43:47;10.30;99.90
14099;DHT22;7126;48.458;7.930;2024-03-23T11:46:22;10.50;99.90
14099;DHT22;7126;48.458;7.930;2024-03-23T11:48:50;10.80;99.90
14099;DHT22;7126;48.458;7.930;2024-03-23T11:51:17;11.30;99.90
14099;DHT22;7126;48.458;7.930;2024-03-23T11:53:42;11.90;99.90
14099;DHT22;7126;48.458;7.930;2024-03-23T11:56:08;12.20;99.90
14099;DHT22;7126;48.458;7.930;2024-03-23T11:58:35;12.50;99.90
14099;DHT22;7126;48.458;7.930;2024-03-23T12:01:02;12.70;99.90
14099;DHT22;7126;48.458;7.930;2024-03-23T12:03:29;12.80;99.90
14099;DHT22;7126;48.458;7.930;2024-03-23T12:05:57;12.60;99.90
14099;DHT22;7126;48.458;7.930;2024-03-23T12:08:30;12.40;99.90
14099;DHT22;7126;48.458;7.930;2024-03-23T12:11:07;12.20;99.90
14099;DHT22;7126;48.458;7.930;2024-03-23T12:13:33;11.90;99.90
14099;DHT22;7126;48.458;7.930;2024-03-23T12:16:17;11.70;99.90
14099;DHT22;7126;48.458;7.930;2024-03-23T12:18:44;11.40;99.90
14099;DHT22;7126;48.458;7.930;2024-03-23T12:21:10;11.40;99.90
14099;DHT22;7126;48.458;7.930;2024-03-23T12:23:38;11.40;99.90
14099;DHT22;7126;48.458;7.930;2024-03-23T12:26:04;11.40;99.90
14099;DHT22;7126;48.458;7.930;2024-03-23T12:28:29;11.30;99.90
14099;DHT22;7126;48.458;7.930;2024-03-23T12:30:55;11.30;99.90
14099;DHT22;7126;48.458;7.930;2024-03-23T12:33:21;11.20;99.90
14099;DHT22;7126;48.458;7.930;2024-03-23T12:35:50;11.10;99.90
14099;DHT22;7126;48.458;7.930;2024-03-23T12:38:16;11.00;99.90
14099;DHT22;7126;48.458;7.930;2024-03-23T12:40:41;11.10;99.90
14099;DHT22;7126;48.458;7.930;2024-03-23T12:43:07;11.10;99.90
14099;DHT22;7126;48.458;7.930;2024-03-23T12:45:35;11.00;99.90
14099;DHT22;7126;48.458;7.930;2024-03-23T12:48:01;11.10;99.90
14099;DHT22;7126;48.458;7.930;2024-03-23T12:50:26;11.10;99.90
14099;DHT22;7126;48.458;7.930;2024-03-23T12:52:52;11.20;99.90
14099;DHT22;7126;48.458;7.930;2024-03-23T12:55:17;11.10;99.90
14099;DHT22;7126;48.458;7.930;2024-03-23T12:57:43;10.90;99.90
14099;DHT22;7126;48.458;7.930;2024-03-23T13:00:09;10.70;99.90
14099;DHT22;7126;48.458;7.930;2024-03-23T13:02:37;10.70;99.90
14099;DHT22;7126;48.458;7.930;2024-03-23T13:05:04;10.80;99.90
14099;DHT22;7126;48.458;7.930;2024-03-23T13:07:29;11.40;99.90
14099;DHT22;7126;48.458;7.930;2024-03-23T13:09:55;11.90;99.90
14099;DHT22;7126;48.458;7.930;2024-03-23T13:12:22;12.40;99.90
14099;DHT22;7126;48.458;7.930;2024-03-23T13:14:47;12.80;99.90
14099;DHT22;7126;48.458;7.930;2024-03-23T13:17:13;13.30;99.90
14099;DHT22;7126;48.458;7.930;2024-03-23T13:19:39;13.80;99.90
14099;DHT22;7126;48.458;7.930;2024-03-23T13:22:05;13.70;99.90
14099;DHT22;7126;48.458;7.930;2024-03-23T13:24:31;13.30;99.90
14099;DHT22;7126;48.458;7.930;2024-03-23T13:26:57;12.90;99.90
14099;DHT22;7126;48.458;7.930;2024-03-23T13:29:23;12.60;99.90
14099;DHT22;7126;48.458;7.930;2024-03-23T13:31:50;12.30;99.90
14099;DHT22;7126;48.458;7.930;2024-03-23T13:34:16;12.00;99.90
14099;DHT22;7126;48.458;7.930;2024-03-23T13:36:42;11.90;99.90
14099;DHT22;7126;48.458;7.930;2024-03-23T13:39:08;11.60;99.90
14099;DHT22;7126;48.458;7.930;2024-03-23T13:41:40;11.30;99.90
14099;DHT22;7126;48.458;7.930;2024-03-23T13:44:07;10.70;99.90
14099;DHT22;7126;48.458;7.930;2024-03-23T13:46:33;10.70;99.90
14099;DHT22;7126;48.458;7.930;2024-03-23T13:49:00;11.10;99.90
14099;DHT22;7126;48.458;7.930;2024-03-23T13:51:26;11.60;99.90
14099;DHT22;7126;48.458;7.930;2024-03-23T13:53:53;11.80;99.90
14099;DHT22;7126;48.458;7.930;2024-03-23T13:56:19;11.90;99.90
14099;DHT22;7126;48.458;7.930;2024-03-23T13:58:45;12.10;99.90
14099;DHT22;7126;48.458;7.930;2024-03-23T14:01:15;12.30;99.90
14099;DHT22;7126;48.458;7.930;2024-03-23T14:03:41;12.40;99.90
14099;DHT22;7126;48.458;7.930;2024-03-23T14:06:08;12.40;99.90
14099;DHT22;7126;48.458;7.930;2024-03-23T14:08:35;12.20;99.90
14099;DHT22;7126;48.458;7.930;2024-03-23T14:11:02;11.90;99.90
14099;DHT22;7126;48.458;7.930;2024-03-23T14:13:28;11.70;99.90
14099;DHT22;7126;48.458;7.930;2024-03-23T14:15:54;11.60;99.90
14099;DHT22;7126;48.458;7.930;2024-03-23T14:18:20;11.40;99.90
14099;DHT22;7126;48.458;7.930;2024-03-23T14:20:45;11.20;99.90
14099;DHT22;7126;48.458;7.930;2024-03-23T14:23:10;10.80;99.90
14099;DHT22;7126;48.458;7.930;2024-03-23T14:25:36;10.40;99.90
14099;DHT22;7126;48.458;7.930;2024-03-23T14:28:01;10.30;99.90
14099;DHT22;7126;48.458;7.930;2024-03-23T14:30:27;10.50;99.90
14099;DHT22;7126;48.458;7.930;2024-03-23T14:32:52;10.50;99.90
14099;DHT22;7126;48.458;7.930;2024-03-23T14:35:18;10.50;99.90
14099;DHT22;7126;48.458;7.930;2024-03-23T14:37:43;10.60;99.90
14099;DHT22;7126;48.458;7.930;2024-03-23T14:40:09;10.70;99.90
14099;DHT22;7126;48.458;7.930;2024-03-23T14:42:38;10.70;99.90
14099;DHT22;7126;48.458;7.930;2024-03-23T14:45:04;10.90;99.90
14099;DHT22;7126;48.458;7.930;2024-03-23T14:47:30;10.90;99.90
14099;DHT22;7126;48.458;7.930;2024-03-23T14:49:56;10.80;99.90
14099;DHT22;7126;48.458;7.930;2024-03-23T14:52:24;10.60;99.90
14099;DHT22;7126;48.458;7.930;2024-03-23T14:54:49;10.40;99.90
14099;DHT22;7126;48.458;7.930;2024-03-23T14:57:15;10.40;99.90
14099;DHT22;7126;48.458;7.930;2024-03-23T14:59:40;10.50;99.90
14099;DHT22;7126;48.458;7.930;2024-03-23T15:02:09;10.40;99.90
14099;DHT22;7126;48.458;7.930;2024-03-23T15:04:36;10.40;99.90
14099;DHT22;7126;48.458;7.930;2024-03-23T15:07:02;10.40;99.90
14099;DHT22;7126;48.458;7.930;2024-03-23T15:09:27;10.20;99.90
14099;DHT22;7126;48.458;7.930;2024-03-23T15:11:53;10.10;99.90
14099;DHT22;7126;48.458;7.930;2024-03-23T15:14:20;9.90;99.90
14099;DHT22;7126;48.458;7.930;2024-03-23T15:16:46;10.00;99.90
14099;DHT22;7126;48.458;7.930;2024-03-23T15:19:14;10.00;99.90
14099;DHT22;7126;48.458;7.930;2024-03-23T15:21:40;9.90;99.90
14099;DHT22;7126;48.458;7.930;2024-03-23T15:24:05;9.90;99.90
14099;DHT22;7126;48.458;7.930;2024-03-23T15:26:31;9.90;99.90
14099;DHT22;7126;48.458;7.930;2024-03-23T15:28:58;9.80;99.90
14099;DHT22;7126;48.458;7.930;2024-03-23T15:31:24;9.80;99.90
14099;DHT22;7126;48.458;7.930;2024-03-23T15:33:50;9.90;99.90
14099;DHT22;7126;48.458;7.930;2024-03-23T15:36:15;9.80;99.90
14099;DHT22;7126;48.458;7.930;2024-03-23T15:38:41;9.80;99.90
14099;DHT22;7126;48.458;7.930;2024-03-23T15:41:08;9.80;99.90
14099;DHT22;7126;48.458;7.930;2024-03-23T15:43:33;10.00;99.90
14099;DHT22;7126;48.458;7.930;2024-03-23T15:46:01;10.20;99.90
14099;DHT22;7126;48.458;7.930;2024-03-23T15:48:30;10.40;99.90
14099;DHT22;7126;48.458;7.930;2024-03-23T15:50:58;10.60;99.90
14099;DHT22;7126;48.458;7.930;2024-03-23T15:53:25;10.70;99.90
14099;DHT22;7126;48.458;7.930;2024-03-23T15:55:58;10.80;99.90
14099;DHT22;7126;48.458;7.930;2024-03-23T15:58:24;10.80;99.90
14099;DHT22;7126;48.458;7.930;2024-03-23T16:01:00;10.70;99.90
14099;DHT22;7126;48.458;7.930;2024-03-23T16:03:26;10.60;99.90
14099;DHT22;7126;48.458;7.930;2024-03-23T16:05:56;10.50;99.90
14099;DHT22;7126;48.458;7.930;2024-03-23T16:08:22;10.50;99.90
14099;DHT22;7126;48.458;7.930;2024-03-23T16:10:48;10.40;99.90
14099;DHT22;7126;48.458;7.930;2024-03-23T16:13:14;10.40;99.90
14099;DHT22;7126;48.458;7.930;2024-03-23T16:15:40;10.30;99.90
14099;DHT22;7126;48.458;7.930;2024-03-23T16:18:06;10.30;99.90
14099;DHT22;7126;48.458;7.930;2024-03-23T16:20:31;10.30;99.90
14099;DHT22;7126;48.458;7.930;2024-03-23T16:22:59;9.90;99.90
14099;DHT22;7126;48.458;7.930;2024-03-23T16:25:25;9.60;99.90
14099;DHT22;7126;48.458;7.930;2024-03-23T16:27:50;9.30;99.90
14099;DHT22;7126;48.458;7.930;2024-03-23T16:30:16;9.20;99.90
14099;DHT22;7126;48.458;7.930;2024-03-23T16:32:41;9.00;99.90
14099;DHT22;7126;48.458;7.930;2024-03-23T16:35:08;8.70;99.90
14099;DHT22;7126;48.458;7.930;2024-03-23T16:37:37;8.50;99.90
14099;DHT22;7126;48.458;7.930;2024-03-23T16:40:03;8.30;99.90
14099;DHT22;7126;48.458;7.930;2024-03-23T16:42:29;8.30;99.90